Time;durP1;ratioP1;P1;durP2;ratioP2;P2;SDS_P1;SDS_P2;PMS_P1;PMS_P2;Temp;Humidity;BMP_temperature;BMP_pressure;BME280_temperature;BME280_humidity;BME280_pressure;Samples;Min_cycle;Max_cycle;Signal;HPM_P1;HPM_P2
2022/10/18 00:01:39;;;;;;;93.80;56.13;;;;;;;;;;5049635;28;20031;-55
2022/10/18 00:04:05;;;;;;;103.13;59.20;;;;;;;;;;5051210;28;20033;-57
2022/10/18 00:06:31;;;;;;;104.15;58.88;;;;;;;;;;5051020;28;20071;-55
2022/10/18 00:08:57;;;;;;;97.07;59.67;;;;;;;;;;5050104;28;20419;-56
2022/10/18 00:11:23;;;;;;;100.95;58.60;;;;;;;;;;5049611;28;20036;-55
2022/10/18 00:13:49;;;;;;;104.60;61.22;;;;;;;;;;5052888;28;20033;-55
2022/10/18 00:16:16;;;;;;;92.18;54.75;;;;;;;;;;5054932;28;20021;-56
2022/10/18 00:18:43;;;;;;;101.72;60.75;;;;;;;;;;5054700;28;20588;-54
2022/10/18 00:21:13;;;;;;;110.95;59.35;;;;;;;;;;5053390;28;20025;-55
2022/10/18 00:23:39;;;;;;;100.18;58.75;;;;;;;;;;5054228;28;20040;-56
2022/10/18 00:26:16;;;;;;;93.85;55.03;;;;;;;;;;5054618;28;20051;-57
2022/10/18 00:28:42;;;;;;;100.72;58.38;;;;;;;;;;5054335;28;20036;-57
2022/10/18 00:31:28;;;;;;;91.65;56.80;;;;;;;;;;5054721;28;20025;-54
2022/10/18 00:33:59;;;;;;;94.72;55.90;;;;;;;;;;5054172;28;20465;-54
2022/10/18 00:36:25;;;;;;;98.07;56.30;;;;;;;;;;5054465;28;20086;-57
2022/10/18 00:38:51;;;;;;;99.22;54.22;;;;;;;;;;5053903;28;20021;-55
2022/10/18 00:41:19;;;;;;;93.00;53.20;;;;;;;;;;5054413;28;20095;-56
2022/10/18 00:44:04;;;;;;;84.22;51.60;;;;;;;;;;5053882;28;20033;-57
2022/10/18 00:46:31;;;;;;;84.85;51.42;;;;;;;;;;5054123;28;20033;-57
2022/10/18 00:49:14;;;;;;;85.38;52.10;;;;;;;;;;5054009;28;20386;-56
2022/10/18 00:51:43;;;;;;;90.57;53.40;;;;;;;;;;5053750;28;20106;-57
2022/10/18 00:54:09;;;;;;;80.90;49.28;;;;;;;;;;5053938;28;20036;-57
2022/10/18 00:56:35;;;;;;;83.43;48.87;;;;;;;;;;5054013;28;20028;-55
2022/10/18 00:59:02;;;;;;;69.50;44.43;;;;;;;;;;5053930;28;20031;-54
2022/10/18 01:01:28;;;;;;;82.10;47.90;;;;;;;;;;5053622;28;20496;-56
2022/10/18 01:03:54;;;;;;;81.65;47.63;;;;;;;;;;5053776;28;20461;-55
2022/10/18 01:06:20;;;;;;;90.80;54.03;;;;;;;;;;5053828;28;20029;-54
2022/10/18 01:08:46;;;;;;;92.60;57.65;;;;;;;;;;5052134;28;20033;-57
2022/10/18 01:11:15;;;;;;;98.55;55.42;;;;;;;;;;5053829;28;20075;-56
2022/10/18 01:14:14;;;;;;;84.68;52.58;;;;;;;;;;5052417;28;20389;-54
2022/10/18 01:16:53;;;;;;;87.97;52.65;;;;;;;;;;5020084;28;20045;-56
2022/10/18 01:19:31;;;;;;;89.82;53.83;;;;;;;;;;5053396;28;20029;-55
2022/10/18 01:22:01;;;;;;;86.70;51.47;;;;;;;;;;5053349;28;20508;-56
2022/10/18 01:24:38;;;;;;;84.20;51.33;;;;;;;;;;5052959;28;20112;-55
2022/10/18 01:27:20;;;;;;;87.27;50.43;;;;;;;;;;5053540;28;20073;-55
2022/10/18 01:29:55;;;;;;;87.40;52.40;;;;;;;;;;5053099;28;20632;-57
2022/10/18 01:32:27;;;;;;;98.72;59.03;;;;;;;;;;5052811;28;20037;-54
2022/10/18 01:34:57;;;;;;;96.60;58.08;;;;;;;;;;5053398;28;20025;-54
2022/10/18 01:37:23;;;;;;;97.90;58.35;;;;;;;;;;5053114;28;20025;-54
2022/10/18 01:39:51;;;;;;;83.35;52.08;;;;;;;;;;5053233;28;20167;-54
2022/10/18 01:42:19;;;;;;;81.30;51.60;;;;;;;;;;5072146;22;20052;-61
2022/10/18 01:44:46;;;;;;;84.63;50.88;;;;;;;;;;5027269;28;20105;-60
2022/10/18 01:47:13;;;;;;;74.20;46.92;;;;;;;;;;5022106;28;20497;-59
2022/10/18 01:49:39;;;;;;;80.63;49.45;;;;;;;;;;5033288;28;20371;-61
2022/10/18 01:52:05;;;;;;;87.05;49.97;;;;;;;;;;5031650;28;20025;-58
2022/10/18 01:54:37;;;;;;;80.78;50.28;;;;;;;;;;5031514;28;20448;-61
2022/10/18 01:57:06;;;;;;;79.25;47.92;;;;;;;;;;5032964;28;20025;-58
2022/10/18 01:59:32;;;;;;;77.18;46.40;;;;;;;;;;5032824;28;20100;-60
2022/10/18 02:02:13;;;;;;;79.03;48.80;;;;;;;;;;5029781;28;20578;-61
2022/10/18 02:04:39;;;;;;;91.00;54.67;;;;;;;;;;5015299;28;20038;-59
2022/10/18 02:07:19;;;;;;;97.25;57.10;;;;;;;;;;5029996;28;20025;-60
2022/10/18 02:09:55;;;;;;;95.20;58.53;;;;;;;;;;5031222;28;20037;-61
2022/10/18 02:12:22;;;;;;;92.45;55.28;;;;;;;;;;5032142;28;20033;-61
2022/10/18 02:14:49;;;;;;;86.75;50.97;;;;;;;;;;5013333;28;20030;-61
2022/10/18 02:17:15;;;;;;;99.88;59.10;;;;;;;;;;5013385;28;20385;-60
2022/10/18 02:19:44;;;;;;;95.28;58.97;;;;;;;;;;5013546;28;20029;-60
2022/10/18 02:22:11;;;;;;;102.10;61.92;;;;;;;;;;5030037;28;20083;-58
2022/10/18 02:24:38;;;;;;;114.25;60.25;;;;;;;;;;5033284;28;20049;-60
2022/10/18 02:27:05;;;;;;;97.25;58.80;;;;;;;;;;5030934;28;20104;-59
2022/10/18 02:29:31;;;;;;;95.25;58.75;;;;;;;;;;5022090;28;20037;-60
2022/10/18 02:32:19;;;;;;;105.00;59.78;;;;;;;;;;5032210;28;20140;-60
2022/10/18 02:35:04;;;;;;;98.15;61.47;;;;;;;;;;5013876;28;20025;-61
2022/10/18 02:37:34;;;;;;;91.90;56.00;;;;;;;;;;5031717;28;20558;-61
2022/10/18 02:40:00;;;;;;;95.00;56.78;;;;;;;;;;5027156;28;20029;-61
2022/10/18 02:42:32;;;;;;;101.35;56.75;;;;;;;;;;5020353;28;20031;-61
2022/10/18 02:44:58;;;;;;;92.60;57.72;;;;;;;;;;5012896;28;20036;-61
2022/10/18 02:47:24;;;;;;;104.75;63.00;;;;;;;;;;5016481;28;20083;-61
2022/10/18 02:49:50;;;;;;;86.85;55.70;;;;;;;;;;5027485;28;20114;-61
2022/10/18 02:52:16;;;;;;;93.95;55.67;;;;;;;;;;5023478;28;20061;-60
2022/10/18 02:54:42;;;;;;;98.35;58.63;;;;;;;;;;5023310;28;20022;-61
2022/10/18 02:57:08;;;;;;;106.45;61.83;;;;;;;;;;5027171;28;20049;-61
2022/10/18 02:59:34;;;;;;;108.80;64.18;;;;;;;;;;5010975;28;20018;-60
2022/10/18 03:02:00;;;;;;;109.80;58.72;;;;;;;;;;5012359;28;20029;-59
2022/10/18 03:04:26;;;;;;;111.82;63.63;;;;;;;;;;5016056;28;20102;-60
2022/10/18 03:06:52;;;;;;;105.10;60.53;;;;;;;;;;5011410;28;20036;-61
2022/10/18 03:09:18;;;;;;;106.75;60.58;;;;;;;;;;5012156;28;20029;-61
2022/10/18 03:11:44;;;;;;;110.22;62.90;;;;;;;;;;5020153;28;20026;-61
2022/10/18 03:14:10;;;;;;;98.88;56.65;;;;;;;;;;5025288;28;20021;-61
2022/10/18 03:16:36;;;;;;;102.32;57.72;;;;;;;;;;5032195;28;20032;-61
2022/10/18 03:19:02;;;;;;;96.40;55.78;;;;;;;;;;5023022;28;20049;-60
2022/10/18 03:21:29;;;;;;;95.22;55.58;;;;;;;;;;5013563;28;20072;-60
2022/10/18 03:23:55;;;;;;;88.43;54.40;;;;;;;;;;5028432;28;20034;-60
2022/10/18 03:26:21;;;;;;;97.72;54.25;;;;;;;;;;5020647;28;20084;-60
2022/10/18 03:28:47;;;;;;;99.55;56.55;;;;;;;;;;5029842;28;20041;-61
2022/10/18 03:31:13;;;;;;;94.80;58.08;;;;;;;;;;5012958;28;20034;-60
2022/10/18 03:33:39;;;;;;;97.03;58.33;;;;;;;;;;5016006;28;20120;-60
2022/10/18 03:36:05;;;;;;;95.22;56.33;;;;;;;;;;5031680;28;20057;-61
2022/10/18 03:38:31;;;;;;;100.75;56.95;;;;;;;;;;5011551;28;20026;-61
2022/10/18 03:40:57;;;;;;;96.95;56.83;;;;;;;;;;5007479;28;20084;-61
2022/10/18 03:43:23;;;;;;;98.90;57.50;;;;;;;;;;5009209;28;20041;-61
2022/10/18 03:45:49;;;;;;;98.20;56.13;;;;;;;;;;5010521;28;20033;-60
2022/10/18 03:48:15;;;;;;;102.37;57.23;;;;;;;;;;4997393;28;20045;-61
2022/10/18 03:50:42;;;;;;;97.15;54.88;;;;;;;;;;5020733;28;20075;-60
2022/10/18 03:53:08;;;;;;;98.38;54.55;;;;;;;;;;5034772;28;20025;-61
2022/10/18 03:55:34;;;;;;;99.70;55.20;;;;;;;;;;5026185;28;20030;-59
2022/10/18 03:58:00;;;;;;;90.30;55.10;;;;;;;;;;5015603;28;20096;-61
2022/10/18 04:00:26;;;;;;;100.80;57.80;;;;;;;;;;5013994;28;20186;-59
2022/10/18 04:02:53;;;;;;;114.82;57.45;;;;;;;;;;5015980;28;20036;-62
2022/10/18 04:05:19;;;;;;;106.57;59.63;;;;;;;;;;5015688;28;20376;-61
2022/10/18 04:07:45;;;;;;;101.22;56.80;;;;;;;;;;5015631;28;20022;-62
2022/10/18 04:10:11;;;;;;;91.60;54.22;;;;;;;;;;5015395;28;20649;-62
2022/10/18 04:12:37;;;;;;;88.13;49.90;;;;;;;;;;5015409;28;20022;-62
2022/10/18 04:15:03;;;;;;;80.88;48.60;;;;;;;;;;5015415;28;20394;-61
2022/10/18 04:17:29;;;;;;;76.80;47.33;;;;;;;;;;5015783;28;20390;-61
2022/10/18 04:19:55;;;;;;;70.85;45.53;;;;;;;;;;5015252;28;20479;-61
2022/10/18 04:22:21;;;;;;;82.25;47.70;;;;;;;;;;5015301;28;20026;-62
2022/10/18 04:24:47;;;;;;;83.55;50.67;;;;;;;;;;5015367;28;20025;-62
2022/10/18 04:27:13;;;;;;;82.88;50.05;;;;;;;;;;5015399;28;20413;-62
2022/10/18 04:29:39;;;;;;;94.07;53.53;;;;;;;;;;5014989;28;20399;-62
2022/10/18 04:32:05;;;;;;;86.47;50.75;;;;;;;;;;5015113;28;20018;-60
2022/10/18 04:34:31;;;;;;;92.93;54.17;;;;;;;;;;5015046;28;20026;-61
2022/10/18 04:36:57;;;;;;;97.93;56.08;;;;;;;;;;5013862;28;20028;-61
2022/10/18 04:39:24;;;;;;;97.90;55.75;;;;;;;;;;5014989;28;20026;-62
2022/10/18 04:41:50;;;;;;;96.32;55.80;;;;;;;;;;5015105;28;20030;-63
2022/10/18 04:44:16;;;;;;;95.35;55.75;;;;;;;;;;5014856;28;20045;-61
2022/10/18 04:46:42;;;;;;;98.68;57.17;;;;;;;;;;5015223;28;20026;-60
2022/10/18 04:49:08;;;;;;;92.47;55.03;;;;;;;;;;5014701;28;20069;-61
2022/10/18 04:51:34;;;;;;;97.10;55.85;;;;;;;;;;5014693;28;20509;-60
2022/10/18 04:54:00;;;;;;;101.65;58.83;;;;;;;;;;5014651;28;20044;-61
2022/10/18 04:56:26;;;;;;;99.10;56.70;;;;;;;;;;5014643;28;20030;-61
2022/10/18 04:58:52;;;;;;;103.95;55.30;;;;;;;;;;5014282;28;20026;-61
2022/10/18 05:01:18;;;;;;;103.68;59.67;;;;;;;;;;5014741;28;20054;-60
2022/10/18 05:03:44;;;;;;;96.28;54.58;;;;;;;;;;5013223;28;20029;-60
2022/10/18 05:06:10;;;;;;;107.75;60.65;;;;;;;;;;5014515;28;20034;-61
2022/10/18 05:08:37;;;;;;;109.53;60.28;;;;;;;;;;5014368;28;20022;-61
2022/10/18 05:11:03;;;;;;;100.47;55.30;;;;;;;;;;5014419;28;20032;-61
2022/10/18 05:13:30;;;;;;;108.38;59.72;;;;;;;;;;5014637;28;20372;-61
2022/10/18 05:15:58;;;;;;;121.88;59.97;;;;;;;;;;5014373;28;20088;-61
2022/10/18 05:18:24;;;;;;;114.20;58.95;;;;;;;;;;5014280;28;20045;-61
2022/10/18 05:20:50;;;;;;;116.53;62.00;;;;;;;;;;5014206;28;20034;-60
2022/10/18 05:23:16;;;;;;;109.80;60.67;;;;;;;;;;5014445;28;20036;-60
2022/10/18 05:25:42;;;;;;;116.65;62.03;;;;;;;;;;5014149;28;20410;-62
2022/10/18 05:28:09;;;;;;;115.23;61.73;;;;;;;;;;5014074;28;20091;-61
2022/10/18 05:30:37;;;;;;;111.97;62.35;;;;;;;;;;5014057;28;20279;-61
2022/10/18 05:33:03;;;;;;;104.03;58.03;;;;;;;;;;5013833;28;20033;-61
2022/10/18 05:35:29;;;;;;;105.15;60.25;;;;;;;;;;5013996;28;20394;-61
2022/10/18 05:37:55;;;;;;;106.93;60.10;;;;;;;;;;5013919;28;20030;-61
2022/10/18 05:40:21;;;;;;;106.70;61.22;;;;;;;;;;5013814;28;20383;-61
2022/10/18 05:42:51;;;;;;;110.60;60.33;;;;;;;;;;5013498;28;20487;-60
2022/10/18 05:45:17;;;;;;;111.80;59.78;;;;;;;;;;5013808;28;20542;-61
2022/10/18 05:47:43;;;;;;;106.93;60.92;;;;;;;;;;5013776;28;20025;-61
2022/10/18 05:50:09;;;;;;;98.45;60.25;;;;;;;;;;5013579;28;20053;-61
2022/10/18 05:52:35;;;;;;;104.10;60.42;;;;;;;;;;5013583;28;20029;-60
2022/10/18 05:55:01;;;;;;;105.20;57.97;;;;;;;;;;5013590;28;20509;-61
2022/10/18 05:57:27;;;;;;;108.05;57.10;;;;;;;;;;5013555;28;20030;-61
2022/10/18 05:59:53;;;;;;;102.93;57.00;;;;;;;;;;5013448;28;20022;-61
2022/10/18 06:02:19;;;;;;;99.05;57.50;;;;;;;;;;5013321;28;20034;-62
2022/10/18 06:04:45;;;;;;;108.20;62.58;;;;;;;;;;5013538;28;20255;-61
2022/10/18 06:07:11;;;;;;;96.18;57.90;;;;;;;;;;5012105;28;20037;-61
2022/10/18 06:09:38;;;;;;;96.50;60.30;;;;;;;;;;5012477;28;20105;-59
2022/10/18 06:12:04;;;;;;;105.15;59.28;;;;;;;;;;5012991;28;20634;-61
2022/10/18 06:14:31;;;;;;;99.38;59.20;;;;;;;;;;5013346;28;20483;-60
2022/10/18 06:16:57;;;;;;;106.53;58.80;;;;;;;;;;5013249;28;20041;-61
2022/10/18 06:19:23;;;;;;;105.55;61.08;;;;;;;;;;5013050;28;20018;-60
2022/10/18 06:21:49;;;;;;;111.50;62.78;;;;;;;;;;5013114;28;20405;-59
2022/10/18 06:24:15;;;;;;;101.63;59.55;;;;;;;;;;5013058;28;20056;-59
2022/10/18 06:26:41;;;;;;;109.70;61.40;;;;;;;;;;5013042;28;20491;-61
2022/10/18 06:29:07;;;;;;;103.65;59.45;;;;;;;;;;5012844;28;20494;-60
2022/10/18 06:31:33;;;;;;;102.63;60.95;;;;;;;;;;5011561;28;20120;-61
2022/10/18 06:34:00;;;;;;;103.43;61.63;;;;;;;;;;5012828;28;20386;-60
2022/10/18 06:36:26;;;;;;;101.47;59.58;;;;;;;;;;5012907;28;20030;-61
2022/10/18 06:38:53;;;;;;;103.70;60.22;;;;;;;;;;5012536;28;20049;-61
2022/10/18 06:41:20;;;;;;;109.60;61.00;;;;;;;;;;5012785;28;20030;-60
2022/10/18 06:43:50;;;;;;;106.50;61.05;;;;;;;;;;5012540;28;20038;-61
2022/10/18 06:46:16;;;;;;;107.85;62.22;;;;;;;;;;5012620;28;20034;-61
2022/10/18 06:48:42;;;;;;;99.20;58.88;;;;;;;;;;5012521;28;20030;-60
2022/10/18 06:51:09;;;;;;;105.72;59.63;;;;;;;;;;5012549;28;20101;-58
2022/10/18 06:53:36;;;;;;;112.18;62.28;;;;;;;;;;5012507;28;20042;-61
2022/10/18 06:56:07;;;;;;;111.00;65.85;;;;;;;;;;5012535;28;20502;-61
2022/10/18 06:58:34;;;;;;;103.68;61.42;;;;;;;;;;5012365;28;20032;-62
2022/10/18 07:01:04;;;;;;;100.13;59.25;;;;;;;;;;5012470;28;20022;-62
2022/10/18 07:03:30;;;;;;;95.97;60.60;;;;;;;;;;5012357;28;20076;-60
2022/10/18 07:06:00;;;;;;;102.07;59.85;;;;;;;;;;5011065;28;20108;-60
2022/10/18 07:08:26;;;;;;;99.20;59.00;;;;;;;;;;5012188;28;20024;-60
2022/10/18 07:10:52;;;;;;;104.53;64.78;;;;;;;;;;5012186;28;20030;-60
2022/10/18 07:13:19;;;;;;;106.18;61.10;;;;;;;;;;5012223;28;20402;-61
2022/10/18 07:15:45;;;;;;;103.53;60.60;;;;;;;;;;5010883;28;20083;-61
2022/10/18 07:18:11;;;;;;;98.03;59.78;;;;;;;;;;5010738;28;20026;-63
2022/10/18 07:20:37;;;;;;;100.35;60.05;;;;;;;;;;5011981;28;20026;-61
2022/10/18 07:23:05;;;;;;;100.18;61.28;;;;;;;;;;5011863;28;20022;-61
2022/10/18 07:25:31;;;;;;;111.40;66.10;;;;;;;;;;5012203;28;20022;-61
2022/10/18 07:27:58;;;;;;;113.00;63.67;;;;;;;;;;5012401;28;20025;-61
2022/10/18 07:30:24;;;;;;;101.13;63.40;;;;;;;;;;5011769;28;20022;-61
2022/10/18 07:32:53;;;;;;;100.57;64.73;;;;;;;;;;5010660;28;20042;-61
2022/10/18 07:35:19;;;;;;;106.55;63.75;;;;;;;;;;5011985;28;20022;-60
2022/10/18 07:37:45;;;;;;;97.50;58.63;;;;;;;;;;5011984;28;20018;-61
2022/10/18 07:40:11;;;;;;;106.75;63.63;;;;;;;;;;5011941;28;20040;-61
2022/10/18 07:42:37;;;;;;;102.07;62.17;;;;;;;;;;5011076;28;20034;-61
2022/10/18 07:45:04;;;;;;;98.45;62.80;;;;;;;;;;5011798;28;20080;-61
2022/10/18 07:47:30;;;;;;;97.47;61.27;;;;;;;;;;5011893;28;20041;-61
2022/10/18 07:49:56;;;;;;;96.78;60.00;;;;;;;;;;5011642;28;20030;-61
2022/10/18 07:52:22;;;;;;;90.30;58.15;;;;;;;;;;5010556;28;20032;-62
2022/10/18 07:54:48;;;;;;;91.93;58.42;;;;;;;;;;5011856;28;20018;-61
2022/10/18 07:57:14;;;;;;;90.43;57.38;;;;;;;;;;5011829;28;20037;-61
2022/10/18 07:59:40;;;;;;;87.28;54.35;;;;;;;;;;5011578;28;20026;-61
2022/10/18 08:02:06;;;;;;;84.77;53.43;;;;;;;;;;5011665;28;20036;-61
2022/10/18 08:04:32;;;;;;;78.63;50.80;;;;;;;;;;5011663;28;20272;-61
2022/10/18 08:06:58;;;;;;;81.07;51.28;;;;;;;;;;5010483;28;20382;-61
2022/10/18 08:09:24;;;;;;;73.88;47.45;;;;;;;;;;5011702;28;20099;-61
2022/10/18 08:11:50;;;;;;;76.35;48.40;;;;;;;;;;5011609;28;20479;-61
2022/10/18 08:14:16;;;;;;;82.18;51.28;;;;;;;;;;5010262;28;20030;-61
2022/10/18 08:16:43;;;;;;;79.95;51.92;;;;;;;;;;5011588;28;20022;-61
2022/10/18 08:19:09;;;;;;;77.32;52.22;;;;;;;;;;5011497;28;20518;-61
2022/10/18 08:21:35;;;;;;;78.25;50.85;;;;;;;;;;5011714;28;20030;-61
2022/10/18 08:24:01;;;;;;;75.30;48.67;;;;;;;;;;5011640;28;20040;-61
2022/10/18 08:26:27;;;;;;;78.10;51.47;;;;;;;;;;5010297;28;20022;-61
2022/10/18 08:28:53;;;;;;;78.45;51.88;;;;;;;;;;5009958;28;20065;-61
2022/10/18 08:31:19;;;;;;;82.35;54.00;;;;;;;;;;5011353;28;20064;-61
2022/10/18 08:33:46;;;;;;;81.03;54.10;;;;;;;;;;5012814;28;20072;-61
2022/10/18 08:36:13;;;;;;;89.30;55.65;;;;;;;;;;5015060;28;20402;-61
2022/10/18 08:38:39;;;;;;;;;;;;;;;;;;5015374;28;20088;-61
2022/10/18 08:41:24;;;;;;;86.40;57.42;;;;;;;;;;5015004;28;19906;-61
2022/10/18 08:43:55;;;;;;;88.50;57.63;;;;;;;;;;5014638;28;20034;-61
2022/10/18 08:46:22;;;;;;;98.53;59.05;;;;;;;;;;5014925;28;20033;-61
2022/10/18 08:48:49;;;;;;;86.38;58.20;;;;;;;;;;5014949;28;20509;-61
2022/10/18 08:51:54;;;;;;;90.85;56.08;;;;;;;;;;5014773;28;20034;-61
2022/10/18 08:54:48;;;;;;;86.93;56.88;;;;;;;;;;4992708;28;20045;-61
2022/10/18 08:57:16;;;;;;;93.03;57.97;;;;;;;;;;4992755;28;20507;-61
2022/10/18 08:59:43;;;;;;;93.90;54.45;;;;;;;;;;5007417;28;20030;-61
2022/10/18 09:02:24;;;;;;;92.40;59.67;;;;;;;;;;5013258;28;20040;-61
2022/10/18 09:04:53;;;;;;;89.28;57.28;;;;;;;;;;5014513;28;20034;-61
2022/10/18 09:07:19;;;;;;;81.22;53.80;;;;;;;;;;5014554;28;20097;-61
2022/10/18 09:09:54;;;;;;;76.53;52.78;;;;;;;;;;5014335;28;20109;-60
2022/10/18 09:12:29;;;;;;;77.50;49.42;;;;;;;;;;5014407;28;20080;-61
2022/10/18 09:14:55;;;;;;;77.43;50.90;;;;;;;;;;5014372;28;20394;-61
2022/10/18 09:17:27;;;;;;;78.78;52.25;;;;;;;;;;5014292;28;20083;-61
2022/10/18 09:19:54;;;;;;;71.97;51.20;;;;;;;;;;5014180;28;20101;-61
2022/10/18 09:22:20;;;;;;;;;;;;;;;;;;5013347;28;20025;-61
2022/10/18 09:24:53;;;;;;;82.68;51.65;;;;;;;;;;5014337;28;19905;-61
2022/10/18 09:27:20;;;;;;;74.97;50.47;;;;;;;;;;5012942;28;20026;-61
2022/10/18 09:30:05;;;;;;;71.25;48.10;;;;;;;;;;5013927;28;20026;-61
2022/10/18 09:32:43;;;;;;;72.57;50.03;;;;;;;;;;5014082;28;20474;-61
2022/10/18 09:35:29;;;;;;;78.05;51.70;;;;;;;;;;5013984;28;20076;-61
2022/10/18 09:37:59;;;;;;;84.85;55.55;;;;;;;;;;5013863;28;20030;-61
2022/10/18 09:40:27;;;;;;;81.18;53.22;;;;;;;;;;5013788;28;20490;-61
2022/10/18 09:43:01;;;;;;;71.97;51.10;;;;;;;;;;5013653;28;20048;-61
2022/10/18 09:45:31;;;;;;;90.95;56.30;;;;;;;;;;5013610;28;20022;-61
2022/10/18 09:48:09;;;;;;;77.70;48.45;;;;;;;;;;5012448;28;20057;-61
2022/10/18 09:50:51;;;;;;;69.20;48.60;;;;;;;;;;5013636;28;20102;-61
2022/10/18 09:53:17;;;;;;;63.70;43.90;;;;;;;;;;5012463;28;20022;-61
2022/10/18 09:56:07;;;;;;;71.63;47.20;;;;;;;;;;5012375;28;20018;-61
2022/10/18 09:58:42;;;;;;;64.25;42.42;;;;;;;;;;5010351;28;20561;-61
2022/10/18 10:01:09;;;;;;;69.80;44.55;;;;;;;;;;5013482;28;20525;-61
2022/10/18 10:03:35;;;;;;;;;;;;;;;;;;5013972;28;20106;-61
2022/10/18 10:06:14;;;;;;;70.88;44.17;;;;;;;;;;5012268;28;19949;-61
2022/10/18 10:08:47;;;;;;;66.15;42.55;;;;;;;;;;5013178;28;20017;-61
2022/10/18 10:11:26;;;;;;;64.47;43.00;;;;;;;;;;5013181;28;20041;-61
2022/10/18 10:13:56;;;;;;;75.53;47.53;;;;;;;;;;5011919;28;20382;-60
2022/10/18 10:16:22;;;;;;;84.07;51.13;;;;;;;;;;5013144;28;20483;-60
2022/10/18 10:18:53;;;;;;;78.70;52.13;;;;;;;;;;5013010;28;20022;-60
2022/10/18 10:21:19;;;;;;;80.97;55.03;;;;;;;;;;5014221;28;20117;-60
2022/10/18 10:23:50;;;;;;;88.82;57.42;;;;;;;;;;5032767;28;20025;-60
2022/10/18 10:26:24;;;;;;;85.68;55.50;;;;;;;;;;5023758;28;20025;-60
2022/10/18 10:28:50;;;;;;;88.70;57.20;;;;;;;;;;5012882;28;20130;-60
2022/10/18 10:31:29;;;;;;;82.28;56.72;;;;;;;;;;5012838;28;20034;-60
2022/10/18 10:34:02;;;;;;;81.22;54.17;;;;;;;;;;5011818;28;20072;-60
2022/10/18 10:36:29;;;;;;;82.28;55.88;;;;;;;;;;5019868;28;20037;-60
2022/10/18 10:39:04;;;;;;;80.03;54.05;;;;;;;;;;5026535;28;21254;-61
2022/10/18 10:41:30;;;;;;;77.38;52.15;;;;;;;;;;5025666;28;20034;-60
2022/10/18 10:43:56;;;;;;;72.30;51.27;;;;;;;;;;5024525;28;20025;-60
2022/10/18 10:46:25;;;;;;;82.10;52.70;;;;;;;;;;5031975;28;20060;-61
2022/10/18 10:48:59;;;;;;;76.47;55.42;;;;;;;;;;5019196;28;20041;-60
2022/10/18 10:51:38;;;;;;;77.43;51.30;;;;;;;;;;5023865;28;20482;-60
2022/10/18 10:54:24;;;;;;;69.88;49.15;;;;;;;;;;5025963;28;20033;-60
2022/10/18 10:56:50;;;;;;;70.65;46.20;;;;;;;;;;5020113;28;20029;-61
2022/10/18 10:59:18;;;;;;;64.88;44.90;;;;;;;;;;5022626;28;20124;-60
2022/10/18 11:01:46;;;;;;;67.28;46.75;;;;;;;;;;5022745;28;20029;-60
2022/10/18 11:04:23;;;;;;;67.18;45.55;;;;;;;;;;5021724;28;20034;-60
2022/10/18 11:07:07;;;;;;;68.95;48.28;;;;;;;;;;5015036;28;20494;-60
2022/10/18 11:09:52;;;;;;;67.47;46.58;;;;;;;;;;5011954;28;20036;-60
2022/10/18 11:12:18;;;;;;;65.53;43.60;;;;;;;;;;5012743;28;20041;-60
2022/10/18 11:14:49;;;;;;;58.45;43.00;;;;;;;;;;5029138;28;20026;-60
2022/10/18 11:17:22;;;;;;;61.20;43.80;;;;;;;;;;5018584;28;20061;-61
2022/10/18 11:20:04;;;;;;;59.20;42.70;;;;;;;;;;5014063;28;20026;-60
2022/10/18 11:22:33;;;;;;;56.17;38.38;;;;;;;;;;5022361;28;20018;-60
2022/10/18 11:25:01;;;;;;;59.40;41.00;;;;;;;;;;5024780;28;20032;-60
2022/10/18 11:27:30;;;;;;;57.72;40.78;;;;;;;;;;5012130;28;20499;-61
2022/10/18 11:30:16;;;;;;;57.70;40.75;;;;;;;;;;5022398;28;20493;-60
2022/10/18 11:32:49;;;;;;;59.50;41.25;;;;;;;;;;5002775;28;20037;-61
2022/10/18 11:35:21;;;;;;;53.80;40.00;;;;;;;;;;5011996;28;20037;-61
2022/10/18 11:37:47;;;;;;;52.95;40.40;;;;;;;;;;5011936;28;20022;-61
2022/10/18 11:40:43;;;;;;;55.77;40.33;;;;;;;;;;5011743;28;20034;-61
2022/10/18 11:43:16;;;;;;;55.90;40.58;;;;;;;;;;4992341;28;20055;-60
2022/10/18 11:45:51;;;;;;;53.78;40.95;;;;;;;;;;5012210;28;20041;-61
2022/10/18 11:48:28;;;;;;;51.03;37.15;;;;;;;;;;5011680;28;20030;-60
2022/10/18 11:50:54;;;;;;;50.85;35.97;;;;;;;;;;5010640;28;20376;-61
2022/10/18 11:53:20;;;;;;;50.47;36.20;;;;;;;;;;5023596;28;20478;-61
2022/10/18 11:55:58;;;;;;;51.73;35.03;;;;;;;;;;5029692;28;20100;-61
2022/10/18 11:58:56;;;;;;;47.70;35.90;;;16.10;96.00;;;;;;5030425;28;20099;-61
2022/10/18 12:01:25;;;;;;;47.83;35.07;;;;;;;;;;5010537;28;20029;-61
2022/10/18 12:04:10;;;;;;;47.15;35.40;;;;;;;;;;5011499;28;20026;-61
2022/10/18 12:06:38;;;;;;;46.50;33.20;;;;;;;;;;5011883;28;20030;-61
2022/10/18 12:09:07;;;;;;;50.97;35.63;;;;;;;;;;5022725;28;20029;-61
2022/10/18 12:11:39;;;;;;;50.90;34.15;;;;;;;;;;5034996;28;20030;-61
2022/10/18 12:14:13;;;;;;;48.42;33.83;;;;;;;;;;5025102;28;20101;-61
2022/10/18 12:16:40;;;;;;;47.20;34.95;;;;;;;;;;5015355;28;20026;-61
2022/10/18 12:19:12;;;;;;;45.60;32.65;;;;;;;;;;5021492;28;20113;-61
2022/10/18 12:21:38;;;;;;;47.20;33.60;;;;;;;;;;5032202;28;20073;-61
2022/10/18 12:24:04;;;;;;;44.35;33.33;;;;;;;;;;5035008;28;20030;-61
2022/10/18 12:26:32;;;;;;;45.17;31.17;;;;;;;;;;5033852;28;20470;-61
2022/10/18 12:29:16;;;;;;;37.92;27.90;;;;;;;;;;5024693;28;20030;-60
2022/10/18 12:31:46;;;;;;;42.17;29.65;;;;;;;;;;5015062;28;20038;-60
2022/10/18 12:34:25;;;;;;;42.25;31.33;;;;;;;;;;4994178;28;20022;-61
2022/10/18 12:36:51;;;;;;;43.80;32.13;;;;;;;;;;4995527;28;20022;-61
2022/10/18 12:39:23;;;;;;;43.67;31.43;;;;;;;;;;5006967;28;20099;-61
2022/10/18 12:41:53;;;;;;;45.35;33.22;;;;;;;;;;5015254;28;20053;-60
2022/10/18 12:44:20;;;;;;;40.28;30.88;;;;;;;;;;5034761;28;20033;-61
2022/10/18 12:46:54;;;;;;;41.05;30.88;;;;;;;;;;5034794;28;20104;-61
2022/10/18 12:49:24;;;;;;;43.47;28.10;;;;;;;;;;5034341;28;20080;-60
2022/10/18 12:51:52;;;;;;;34.90;26.10;;;;;;;;;;5032851;28;20120;-60
2022/10/18 12:54:19;;;;;;;39.92;27.38;;;;;;;;;;4995190;28;20453;-60
2022/10/18 12:56:46;;;;;;;36.13;26.50;;;;;;;;;;4995287;28;20027;-60
2022/10/18 12:59:15;;;;;;;37.35;26.88;;;;;;;;;;5012498;28;20026;-60
2022/10/18 13:01:50;;;;;;;38.67;28.15;;;;;;;;;;5014745;28;20033;-60
2022/10/18 13:04:31;;;;;;;38.72;28.80;;;;;;;;;;5033614;28;20029;-59
2022/10/18 13:06:57;;;;;;;34.45;26.00;;;;;;;;;;5034002;28;20392;-60
2022/10/18 13:09:24;;;;;;;34.88;24.20;;;;;;;;;;5015047;28;20092;-61
2022/10/18 13:11:53;;;;;;;39.75;26.02;;;;;;;;;;5015206;28;20076;-61
2022/10/18 13:14:28;;;;;;;38.17;26.38;;;;;;;;;;5033715;28;20076;-60
2022/10/18 13:17:01;;;;;;;34.03;24.98;;;;;;;;;;5033966;28;20084;-60
2022/10/18 13:19:33;;;;;;;33.33;23.70;;;;;;;;;;5014202;28;20072;-60
2022/10/18 13:21:59;;;;;;;29.50;23.85;;;;;;;;;;5014130;28;20026;-60
2022/10/18 13:24:25;;;;;;;30.00;23.52;;;;;;;;;;5034051;28;20029;-61
2022/10/18 13:26:57;;;;;;;29.95;24.48;;;;;;;;;;5022100;28;20030;-61
2022/10/18 13:29:35;;;;;;;28.35;21.67;;;23.90;64.40;;;;;;5033675;28;20121;-60
2022/10/18 13:32:01;;;;;;;28.38;23.13;;;;;;;;;;5022418;28;20522;-61
2022/10/18 13:34:31;;;;;;;28.63;21.00;;;;;;;;;;5015101;28;20029;-60
2022/10/18 13:37:02;;;;;;;30.13;21.98;;;;;;;;;;5012725;28;20308;-61
2022/10/18 13:39:29;;;;;;;30.27;23.73;;;;;;;;;;5013765;28;20076;-61
2022/10/18 13:41:55;;;;;;;30.88;24.05;;;;;;;;;;5019236;28;20029;-61
2022/10/18 13:44:38;;;;;;;31.10;21.88;;;27.70;49.20;;;;;;5062075;22;20041;-57
2022/10/18 13:47:04;;;;;;;31.17;21.92;;;27.80;49.00;;;;;;5034460;28;20468;-57
2022/10/18 13:49:39;;;;;;;30.73;22.63;;;;;;;;;;5032212;28;20065;-58
2022/10/18 13:52:17;;;;;;;26.30;20.35;;;27.70;49.00;;;;;;5030483;28;20029;-58
2022/10/18 13:55:16;;;;;;;27.83;19.65;;;27.80;48.00;;;;;;5014496;28;20026;-57
2022/10/18 13:57:51;;;;;;;30.38;19.33;;;;;;;;;;5018402;28;20373;-56
2022/10/18 14:00:38;;;;;;;30.50;21.25;;;27.70;47.60;;;;;;5011162;28;20018;-58
2022/10/18 14:03:29;;;;;;;27.02;19.67;;;28.20;46.90;;;;;;5011808;28;20121;-57
2022/10/18 14:06:07;;;;;;;25.70;19.85;;;28.20;47.30;;;;;;5012414;28;20022;-57
2022/10/18 14:08:46;;;;;;;28.02;18.40;;;28.10;46.50;;;;;;5010210;28;20554;-58
2022/10/18 14:11:26;;;;;;;30.52;18.98;;;28.10;47.20;;;;;;5015499;28;20494;-56
2022/10/18 14:13:56;;;;;;;25.50;18.73;;;28.00;47.90;;;;;;5014568;28;20053;-56
2022/10/18 14:16:42;;;;;;;27.38;20.60;;;28.10;48.30;;;;;;5029366;28;20128;-56
2022/10/18 14:19:16;;;;;;;30.92;19.33;;;;;;;;;;5023012;28;20037;-57
2022/10/18 14:21:44;;;;;;;27.65;18.70;;;;;;;;;;5027932;28;20029;-55
2022/10/18 14:24:21;;;;;;;32.33;19.50;;;28.00;48.10;;;;;;5012404;28;20046;-57